Time;durP1;ratioP1;P1;durP2;ratioP2;P2;SDS_P1;SDS_P2;PMS_P1;PMS_P2;Temp;Humidity;BMP_temperature;BMP_pressure;BME280_temperature;BME280_humidity;BME280_pressure;Samples;Min_cycle;Max_cycle;Signal;HPM_P1;HPM_P2
2023/10/23 00:01:19;;;;;;;18.73;17.52;;;11.50;99.90;;;;;;4982208;28;20077;-74
2023/10/23 00:03:46;;;;;;;19.70;18.35;;;11.50;99.90;;;;;;4996726;28;20454;-75
2023/10/23 00:06:13;;;;;;;19.17;17.88;;;11.50;99.90;;;;;;5001370;28;20157;-74
2023/10/23 00:08:40;;;;;;;18.67;17.35;;;11.50;99.90;;;;;;5003377;28;20034;-75
2023/10/23 00:11:07;;;;;;;19.17;17.83;;;11.40;99.90;;;;;;4993364;28;21053;-75
2023/10/23 00:13:34;;;;;;;18.85;17.55;;;11.40;99.90;;;;;;5006085;28;20041;-75
2023/10/23 00:16:01;;;;;;;19.67;18.17;;;11.40;99.90;;;;;;4998921;28;20416;-75
2023/10/23 00:18:28;;;;;;;19.38;18.05;;;11.50;99.90;;;;;;5004379;28;20057;-75
2023/10/23 00:20:56;;;;;;;19.27;17.60;;;11.50;99.90;;;;;;4994407;28;20060;-75
2023/10/23 00:23:22;;;;;;;18.90;17.50;;;11.50;99.90;;;;;;4991893;28;20045;-74
2023/10/23 00:25:49;;;;;;;18.00;16.65;;;11.50;99.90;;;;;;4975726;28;20054;-73
2023/10/23 00:28:16;;;;;;;17.85;16.40;;;11.50;99.90;;;;;;4995720;28;20125;-74
2023/10/23 00:30:44;;;;;;;17.30;16.15;;;11.50;99.90;;;;;;4999298;28;20381;-73
2023/10/23 00:33:11;;;;;;;17.30;15.82;;;11.50;99.90;;;;;;4991420;28;20841;-75
2023/10/23 00:35:38;;;;;;;17.50;16.02;;;11.50;99.90;;;;;;4994843;28;20111;-75
2023/10/23 00:38:05;;;;;;;17.38;16.08;;;11.50;99.90;;;;;;4985032;28;20056;-75
2023/10/23 00:40:32;;;;;;;16.25;15.07;;;11.60;99.90;;;;;;4998486;28;20697;-75
2023/10/23 00:43:21;;;;;;;17.33;15.80;;;11.60;99.90;;;;;;4990211;28;20056;-73
2023/10/23 00:45:58;;;;;;;16.67;15.50;;;11.60;99.90;;;;;;4990454;28;20157;-73
2023/10/23 00:48:26;;;;;;;17.08;15.77;;;11.60;99.90;;;;;;4999492;28;20057;-75
2023/10/23 00:50:58;;;;;;;16.58;15.40;;;11.70;99.90;;;;;;4997093;28;20064;-75
2023/10/23 00:53:27;;;;;;;16.08;14.95;;;11.70;99.90;;;;;;4997134;28;20688;-75
2023/10/23 00:55:57;;;;;;;16.60;15.20;;;11.70;99.90;;;;;;4997837;28;20065;-74
2023/10/23 00:58:25;;;;;;;17.42;15.90;;;11.70;99.90;;;;;;4997523;28;20053;-77
2023/10/23 01:00:54;;;;;;;18.30;16.88;;;11.70;99.90;;;;;;5000977;28;20592;-73
2023/10/23 01:03:22;;;;;;;18.90;17.35;;;11.70;99.90;;;;;;4984961;28;20041;-73
2023/10/23 01:05:49;;;;;;;18.58;16.98;;;11.70;99.90;;;;;;4997456;28;20037;-73
2023/10/23 01:08:16;;;;;;;18.88;17.50;;;11.70;99.90;;;;;;4995785;28;20050;-74
2023/10/23 01:10:44;;;;;;;19.55;17.95;;;11.60;99.90;;;;;;4997356;28;20126;-74
2023/10/23 01:13:12;;;;;;;19.42;18.02;;;11.60;99.90;;;;;;4995193;28;20114;-74
2023/10/23 01:15:38;;;;;;;19.77;18.27;;;11.60;99.90;;;;;;5009438;28;20049;-72
2023/10/23 01:18:06;;;;;;;19.73;18.15;;;11.60;99.90;;;;;;4992785;28;20057;-74
2023/10/23 01:20:33;;;;;;;21.52;19.77;;;11.60;99.90;;;;;;4987223;28;20050;-75
2023/10/23 01:23:01;;;;;;;22.10;20.23;;;11.60;99.90;;;;;;4997552;28;20042;-75
2023/10/23 01:25:28;;;;;;;22.65;20.65;;;11.60;99.90;;;;;;4994634;28;20037;-74
2023/10/23 01:27:55;;;;;;;22.17;19.95;;;11.70;99.90;;;;;;4984777;28;20045;-75
2023/10/23 01:30:22;;;;;;;21.13;19.38;;;11.70;99.90;;;;;;4996350;28;20140;-74
2023/10/23 01:32:49;;;;;;;20.23;18.40;;;11.50;99.90;;;;;;4996309;28;20087;-73
2023/10/23 01:35:16;;;;;;;18.67;17.27;;;11.50;99.90;;;;;;5000044;28;20127;-74
2023/10/23 01:37:45;;;;;;;18.02;16.55;;;11.40;99.90;;;;;;4997077;28;20041;-74
2023/10/23 01:40:12;;;;;;;18.67;17.13;;;11.40;99.90;;;;;;4998033;28;20056;-74
2023/10/23 01:42:42;;;;;;;17.70;16.20;;;11.40;99.90;;;;;;4982504;28;21495;-73
2023/10/23 01:45:10;;;;;;;18.60;17.05;;;11.40;99.90;;;;;;4996945;28;20156;-73
2023/10/23 01:47:37;;;;;;;19.23;17.67;;;11.30;99.90;;;;;;5002192;28;20144;-74
2023/10/23 01:50:04;;;;;;;20.75;19.02;;;11.30;99.90;;;;;;4997274;28;20069;-75
2023/10/23 01:52:31;;;;;;;21.85;19.75;;;11.30;99.90;;;;;;5003804;28;20582;-74
2023/10/23 01:54:59;;;;;;;20.90;19.13;;;11.30;99.90;;;;;;4996099;28;20619;-75
2023/10/23 01:57:27;;;;;;;20.55;18.85;;;11.30;99.90;;;;;;4999296;28;20049;-74
2023/10/23 01:59:55;;;;;;;20.60;18.90;;;11.30;99.90;;;;;;4996487;28;20044;-73
2023/10/23 02:02:21;;;;;;;22.27;19.98;;;11.30;99.90;;;;;;5017251;28;20065;-73
2023/10/23 02:04:49;;;;;;;21.60;19.60;;;11.30;99.90;;;;;;4996588;28;20189;-74
2023/10/23 02:07:16;;;;;;;19.85;18.25;;;11.40;99.90;;;;;;5001504;28;20127;-75
2023/10/23 02:09:43;;;;;;;20.77;19.08;;;11.40;99.90;;;;;;5000753;28;20389;-73
2023/10/23 02:12:10;;;;;;;21.17;19.48;;;11.30;99.90;;;;;;4993414;28;20068;-73
2023/10/23 02:14:36;;;;;;;19.90;18.35;;;11.40;99.90;;;;;;4999007;28;20049;-74
2023/10/23 02:17:04;;;;;;;20.65;18.75;;;11.40;99.90;;;;;;5026323;28;20036;-73
2023/10/23 02:19:35;;;;;;;20.30;18.50;;;11.50;99.90;;;;;;5026233;28;20069;-73
2023/10/23 02:22:02;;;;;;;20.85;18.75;;;11.50;99.90;;;;;;5032032;28;20036;-72
2023/10/23 02:24:28;;;;;;;20.88;18.95;;;11.50;99.90;;;;;;4997639;28;20057;-74
2023/10/23 02:26:56;;;;;;;18.83;17.25;;;11.40;99.90;;;;;;4994167;28;20042;-75
2023/10/23 02:29:23;;;;;;;18.80;17.17;;;11.40;99.90;;;;;;5000470;28;20595;-74
2023/10/23 02:31:50;;;;;;;19.40;17.67;;;11.30;99.90;;;;;;4999044;28;20124;-74
2023/10/23 02:34:16;;;;;;;20.27;18.52;;;11.40;99.90;;;;;;5026206;28;20674;-75
2023/10/23 02:36:43;;;;;;;20.13;18.52;;;11.50;99.90;;;;;;4999303;28;20100;-74
2023/10/23 02:39:10;;;;;;;20.33;18.55;;;11.50;99.90;;;;;;5003221;28;20472;-75
2023/10/23 02:41:38;;;;;;;19.23;17.60;;;11.50;99.90;;;;;;4996057;28;20507;-75
2023/10/23 02:44:05;;;;;;;19.83;17.98;;;11.50;99.90;;;;;;4993698;28;20050;-75
2023/10/23 02:46:38;;;;;;;19.67;17.98;;;11.60;99.90;;;;;;4997811;28;20045;-74
2023/10/23 02:49:05;;;;;;;19.70;18.10;;;11.60;99.90;;;;;;4996950;28;20046;-74
2023/10/23 02:51:32;;;;;;;18.73;17.00;;;11.50;99.90;;;;;;4997828;28;20125;-75
2023/10/23 02:53:59;;;;;;;18.92;16.73;;;11.40;99.90;;;;;;4994812;28;20127;-72
2023/10/23 02:56:25;;;;;;;20.52;17.63;;;11.50;99.90;;;;;;4989231;28;20505;-74
2023/10/23 02:58:52;;;;;;;19.55;17.73;;;11.50;99.90;;;;;;5003101;28;20053;-74
2023/10/23 03:01:22;;;;;;;20.33;18.52;;;11.50;99.90;;;;;;4999305;28;20849;-73
2023/10/23 03:03:50;;;;;;;19.92;18.20;;;11.50;99.90;;;;;;4998893;28;20073;-76
2023/10/23 03:06:18;;;;;;;22.15;19.92;;;11.60;99.90;;;;;;5001562;28;20045;-76
2023/10/23 03:08:44;;;;;;;22.00;19.65;;;11.60;99.90;;;;;;4985354;28;20041;-74
2023/10/23 03:11:11;;;;;;;21.55;19.35;;;11.70;99.90;;;;;;4992151;28;20050;-75
2023/10/23 03:13:38;;;;;;;21.27;19.15;;;11.60;99.90;;;;;;4998295;28;20519;-73
2023/10/23 03:16:05;;;;;;;22.00;19.67;;;11.60;99.90;;;;;;4998854;28;20821;-73
2023/10/23 03:18:32;;;;;;;21.25;19.13;;;11.60;99.90;;;;;;4996311;28;20037;-75
2023/10/23 03:21:00;;;;;;;23.15;20.63;;;11.60;99.90;;;;;;4980008;28;20123;-74
2023/10/23 03:23:30;;;;;;;23.35;21.13;;;11.70;99.90;;;;;;4998871;28;20123;-75
2023/10/23 03:25:57;;;;;;;23.67;21.08;;;11.60;99.90;;;;;;4997905;28;20132;-74
2023/10/23 03:28:24;;;;;;;24.70;22.00;;;11.50;99.90;;;;;;5003826;28;20061;-75
2023/10/23 03:30:51;;;;;;;23.42;20.95;;;11.50;99.90;;;;;;5004485;28;20179;-73
2023/10/23 03:33:18;;;;;;;24.33;21.88;;;11.50;99.90;;;;;;4979227;28;20045;-75
2023/10/23 03:35:45;;;;;;;24.35;21.02;;;11.50;99.90;;;;;;4999462;28;20042;-75
2023/10/23 03:38:13;;;;;;;24.95;21.60;;;11.50;99.90;;;;;;4994985;28;20411;-74
2023/10/23 03:40:40;;;;;;;27.08;23.08;;;11.60;99.90;;;;;;5000814;28;20041;-73
2023/10/23 03:43:08;;;;;;;24.60;21.98;;;11.60;99.90;;;;;;4999944;28;20492;-75
2023/10/23 03:45:36;;;;;;;25.15;22.50;;;11.60;99.90;;;;;;4995685;28;20141;-75
2023/10/23 03:48:03;;;;;;;27.92;24.88;;;11.70;99.90;;;;;;4995893;28;20045;-75
2023/10/23 03:50:30;;;;;;;26.80;24.23;;;11.80;99.90;;;;;;5001366;28;20038;-74
2023/10/23 03:52:57;;;;;;;26.92;24.17;;;11.80;99.90;;;;;;5006853;28;20064;-73
2023/10/23 03:55:24;;;;;;;29.63;26.50;;;11.80;99.90;;;;;;5003550;28;20133;-75
2023/10/23 03:57:51;;;;;;;27.55;24.70;;;11.80;99.90;;;;;;5006496;28;20143;-75
2023/10/23 04:00:18;;;;;;;28.67;25.88;;;11.80;99.90;;;;;;5005547;28;20123;-75
2023/10/23 04:02:45;;;;;;;29.35;26.30;;;11.80;99.90;;;;;;5005820;28;20049;-75
2023/10/23 04:05:13;;;;;;;31.02;27.83;;;11.80;99.90;;;;;;4984341;28;20124;-75
2023/10/23 04:07:39;;;;;;;32.03;28.80;;;11.80;99.90;;;;;;5006449;28;20112;-75
2023/10/23 04:10:07;;;;;;;33.13;29.23;;;11.90;99.90;;;;;;5004674;28;20044;-75
2023/10/23 04:12:34;;;;;;;32.20;28.95;;;11.80;99.90;;;;;;4999342;28;20076;-73
2023/10/23 04:15:01;;;;;;;35.88;29.05;;;11.80;99.90;;;;;;4998199;28;20044;-74
2023/10/23 04:17:29;;;;;;;33.13;29.98;;;11.80;99.90;;;;;;5005484;28;20125;-76
2023/10/23 04:19:56;;;;;;;32.50;29.17;;;11.70;99.90;;;;;;5005476;28;20610;-75
2023/10/23 04:22:23;;;;;;;35.20;31.55;;;11.70;99.90;;;;;;4997326;28;20034;-75
2023/10/23 04:24:53;;;;;;;33.38;29.67;;;11.70;99.90;;;;;;5000912;28;20046;-75
2023/10/23 04:27:20;;;;;;;33.53;30.23;;;11.70;99.90;;;;;;5002891;28;20046;-76
2023/10/23 04:29:47;;;;;;;33.33;29.95;;;11.70;99.90;;;;;;5000604;28;20037;-76
2023/10/23 04:32:14;;;;;;;34.40;30.95;;;11.70;99.90;;;;;;4996530;28;20657;-77
2023/10/23 04:34:41;;;;;;;32.05;28.83;;;11.70;99.90;;;;;;5006330;28;20069;-74
2023/10/23 04:37:07;;;;;;;34.42;30.92;;;11.60;99.90;;;;;;4999180;28;20042;-75
2023/10/23 04:39:34;;;;;;;33.13;29.63;;;11.60;99.90;;;;;;5003766;28;20045;-75
2023/10/23 04:42:01;;;;;;;34.50;30.75;;;11.60;99.90;;;;;;4998658;28;20669;-74
2023/10/23 04:44:28;;;;;;;33.72;30.33;;;11.50;99.90;;;;;;5012940;28;20507;-75
2023/10/23 04:46:55;;;;;;;34.83;30.10;;;11.50;99.90;;;;;;4983286;28;20049;-75
2023/10/23 04:49:22;;;;;;;35.85;29.60;;;11.50;99.90;;;;;;5001294;28;20049;-76
2023/10/23 04:51:49;;;;;;;35.00;29.92;;;11.50;99.90;;;;;;4999344;28;20045;-76
2023/10/23 04:54:16;;;;;;;35.13;30.33;;;11.40;99.90;;;;;;5000300;28;20144;-76
2023/10/23 04:56:43;;;;;;;32.33;28.88;;;11.40;99.90;;;;;;5005795;28;20038;-75
2023/10/23 04:59:10;;;;;;;36.55;29.27;;;11.40;99.90;;;;;;5001592;28;20784;-75
2023/10/23 05:01:37;;;;;;;32.20;28.15;;;11.40;99.90;;;;;;5003742;28;20041;-76
2023/10/23 05:04:04;;;;;;;32.38;28.33;;;11.40;99.90;;;;;;5003500;28;20042;-74
2023/10/23 05:06:31;;;;;;;31.25;27.85;;;11.40;99.90;;;;;;4986961;28;20041;-77
2023/10/23 05:08:58;;;;;;;33.55;28.45;;;11.40;99.90;;;;;;5002863;28;21867;-76
2023/10/23 05:11:24;;;;;;;33.60;27.23;;;11.30;99.90;;;;;;4999212;28;20618;-75
2023/10/23 05:13:51;;;;;;;37.17;28.45;;;11.30;99.90;;;;;;4999028;28;20049;-75
2023/10/23 05:16:18;;;;;;;31.05;28.00;;;11.40;99.90;;;;;;4995140;28;20678;-76
2023/10/23 05:18:45;;;;;;;29.98;26.83;;;11.30;99.90;;;;;;5001807;28;20121;-76
2023/10/23 05:21:13;;;;;;;28.52;25.60;;;11.30;99.90;;;;;;4998881;28;20049;-74
2023/10/23 05:23:41;;;;;;;32.38;26.25;;;11.30;99.90;;;;;;5008357;28;20050;-74
2023/10/23 05:26:10;;;;;;;29.95;26.58;;;11.30;99.90;;;;;;5015128;28;20041;-75
2023/10/23 05:28:43;;;;;;;30.15;26.73;;;11.30;99.90;;;;;;5005191;28;20096;-76
2023/10/23 05:31:10;;;;;;;31.13;27.70;;;11.40;99.90;;;;;;4999416;28;20197;-75
2023/10/23 05:33:37;;;;;;;33.28;28.35;;;11.50;99.90;;;;;;5003680;28;20151;-75
2023/10/23 05:36:06;;;;;;;32.28;27.50;;;11.50;99.90;;;;;;4995652;28;20045;-74
2023/10/23 05:38:33;;;;;;;30.77;27.45;;;11.40;99.90;;;;;;4994052;28;20080;-75
2023/10/23 05:41:00;;;;;;;30.65;27.55;;;11.40;99.90;;;;;;4997806;28;20053;-75
2023/10/23 05:43:28;;;;;;;36.38;30.23;;;11.40;99.90;;;;;;5001584;28;20046;-76
2023/10/23 05:45:55;;;;;;;32.17;28.73;;;11.40;99.90;;;;;;4983174;28;20597;-74
2023/10/23 05:48:23;;;;;;;32.95;29.55;;;11.50;99.90;;;;;;4996560;28;20076;-75
2023/10/23 05:51:00;;;;;;;32.63;29.33;;;11.50;99.90;;;;;;4995706;28;20034;-75
2023/10/23 05:53:27;;;;;;;34.25;30.60;;;11.40;99.90;;;;;;4996312;28;20042;-74
2023/10/23 05:56:01;;;;;;;33.58;30.15;;;11.50;99.90;;;;;;4997877;28;20524;-75
2023/10/23 05:58:28;;;;;;;40.15;31.23;;;11.60;99.90;;;;;;4997026;28;20045;-76
2023/10/23 06:00:55;;;;;;;36.60;30.75;;;11.70;99.90;;;;;;4995032;28;20044;-75
2023/10/23 06:03:22;;;;;;;36.35;30.95;;;11.60;99.90;;;;;;5002242;28;20041;-75
2023/10/23 06:05:49;;;;;;;36.95;32.88;;;11.50;99.90;;;;;;5003657;28;20041;-75
2023/10/23 06:08:16;;;;;;;41.42;33.13;;;11.50;99.90;;;;;;4995368;28;20052;-75
2023/10/23 06:10:43;;;;;;;42.60;33.50;;;11.40;99.90;;;;;;4988681;28;20052;-76
2023/10/23 06:13:14;;;;;;;38.95;33.13;;;11.50;99.90;;;;;;4996704;28;20393;-75
2023/10/23 06:15:40;;;;;;;38.10;31.23;;;11.60;99.90;;;;;;4997928;28;20045;-75
2023/10/23 06:18:07;;;;;;;41.22;33.20;;;11.60;99.90;;;;;;5000106;28;20318;-78
2023/10/23 06:20:34;;;;;;;37.08;33.17;;;11.50;99.90;;;;;;5009960;28;20704;-78
2023/10/23 06:23:01;;;;;;;37.13;33.05;;;11.40;99.90;;;;;;4986559;28;20033;-79
2023/10/23 06:25:31;;;;;;;37.28;32.75;;;11.30;99.90;;;;;;5017831;28;22238;-79
2023/10/23 06:27:59;;;;;;;36.70;32.53;;;11.20;99.90;;;;;;4987446;28;20057;-75
2023/10/23 06:30:26;;;;;;;40.67;32.08;;;11.30;99.90;;;;;;4998512;28;22444;-77
2023/10/23 06:33:52;;;;;;;41.92;32.95;;;11.30;99.90;;;;;;4997449;28;20080;-75
2023/10/23 06:37:12;;;;;;;50.03;35.38;;;11.30;99.90;;;;;;4949654;28;20044;-74
2023/10/23 06:39:41;;;;;;;37.53;33.58;;;11.30;99.90;;;;;;5028286;28;20057;-74
2023/10/23 06:42:08;;;;;;;41.00;34.30;;;11.30;99.90;;;;;;5017892;28;20720;-74
2023/10/23 06:44:35;;;;;;;44.13;36.47;;;11.40;99.90;;;;;;4986473;28;20034;-76
2023/10/23 06:47:02;;;;;;;42.35;34.90;;;11.40;99.90;;;;;;4984971;28;20753;-75
2023/10/23 06:49:30;;;;;;;40.90;35.03;;;11.30;99.90;;;;;;4996277;28;20514;-75
2023/10/23 06:51:57;;;;;;;39.38;34.80;;;11.40;99.90;;;;;;4995066;28;20686;-74
2023/10/23 06:54:26;;;;;;;38.40;34.22;;;11.40;99.90;;;;;;4997559;28;20069;-75
2023/10/23 06:56:54;;;;;;;38.95;33.30;;;11.40;99.90;;;;;;4977290;28;20061;-75
2023/10/23 06:59:20;;;;;;;40.50;35.03;;;11.30;99.90;;;;;;4999798;28;20038;-76
2023/10/23 07:01:47;;;;;;;45.47;34.90;;;11.50;99.90;;;;;;4984193;28;20038;-73
2023/10/23 07:04:15;;;;;;;37.80;33.70;;;11.50;99.90;;;;;;4992709;28;20042;-76
2023/10/23 07:06:42;;;;;;;44.53;35.17;;;11.50;99.90;;;;;;4996435;28;20045;-75
2023/10/23 07:09:08;;;;;;;43.85;35.67;;;11.50;99.90;;;;;;4994923;28;20045;-76
2023/10/23 07:11:36;;;;;;;41.50;34.78;;;11.40;99.90;;;;;;5002647;28;20040;-75
2023/10/23 07:14:05;;;;;;;40.55;33.58;;;11.20;99.90;;;;;;4998051;28;20514;-74
2023/10/23 07:16:32;;;;;;;43.70;34.78;;;11.20;99.90;;;;;;4994259;28;20045;-76
2023/10/23 07:19:04;;;;;;;37.08;30.85;;;11.20;99.90;;;;;;4991709;28;20046;-76
2023/10/23 07:21:32;;;;;;;37.53;31.58;;;11.30;99.90;;;;;;5008336;28;20668;-76
2023/10/23 07:23:59;;;;;;;41.72;31.20;;;11.30;99.90;;;;;;4991405;28;20046;-75
2023/10/23 07:26:26;;;;;;;38.20;32.72;;;11.20;99.90;;;;;;4978073;28;20074;-75
2023/10/23 07:28:53;;;;;;;47.33;34.20;;;11.20;99.90;;;;;;5005274;28;20061;-73
2023/10/23 07:31:19;;;;;;;41.53;32.83;;;11.30;99.90;;;;;;5006160;28;20058;-74
2023/10/23 07:33:47;;;;;;;41.85;32.55;;;11.30;99.90;;;;;;5001547;28;20038;-75
2023/10/23 07:36:14;;;;;;;42.03;32.97;;;11.30;99.90;;;;;;4996772;28;20087;-74
2023/10/23 07:38:43;;;;;;;41.03;33.85;;;11.40;99.90;;;;;;5001098;28;20046;-76
2023/10/23 07:41:11;;;;;;;37.45;33.15;;;11.40;99.90;;;;;;5003113;28;21523;-76
2023/10/23 07:43:38;;;;;;;36.92;31.40;;;11.40;99.90;;;;;;5002799;28;20043;-74
2023/10/23 07:46:07;;;;;;;38.78;33.15;;;11.50;99.90;;;;;;4999211;28;20436;-74
2023/10/23 07:48:43;;;;;;;34.33;30.63;;;11.60;99.90;;;;;;4993204;28;20054;-74
2023/10/23 07:51:11;;;;;;;33.15;29.70;;;11.60;99.90;;;;;;5005283;28;20642;-75
2023/10/23 07:53:38;;;;;;;32.95;29.48;;;11.70;99.90;;;;;;4996524;28;20049;-74
2023/10/23 07:56:05;;;;;;;30.67;27.52;;;11.80;99.90;;;;;;5019022;28;20050;-74
2023/10/23 07:58:32;;;;;;;31.77;27.45;;;11.80;99.90;;;;;;5001196;28;20576;-73
2023/10/23 08:01:08;;;;;;;31.42;28.30;;;11.80;99.90;;;;;;4996729;28;20048;-73
2023/10/23 08:03:36;;;;;;;31.35;28.02;;;11.90;99.90;;;;;;4996125;28;20057;-74
2023/10/23 08:06:05;;;;;;;29.42;26.27;;;11.80;99.90;;;;;;4999389;28;20067;-73
2023/10/23 08:08:36;;;;;;;27.10;24.35;;;12.00;99.90;;;;;;4999221;28;20057;-75
2023/10/23 08:11:05;;;;;;;26.75;23.83;;;12.20;99.90;;;;;;4995704;28;20061;-74
2023/10/23 08:13:33;;;;;;;27.13;24.67;;;12.60;99.90;;;;;;4975274;28;20054;-74
2023/10/23 08:16:01;;;;;;;29.73;27.08;;;12.70;99.90;;;;;;4999900;28;20045;-74
2023/10/23 08:18:28;;;;;;;31.02;28.17;;;13.10;99.90;;;;;;5002589;28;20060;-74
2023/10/23 08:21:14;;;;;;;31.02;28.13;;;13.50;99.90;;;;;;5008061;28;20484;-75
2023/10/23 08:23:46;;;;;;;32.35;29.75;;;13.90;99.90;;;;;;4998541;28;20519;-75
2023/10/23 08:26:13;;;;;;;32.17;29.55;;;14.30;99.90;;;;;;5006057;28;20049;-73
2023/10/23 08:28:41;;;;;;;32.25;29.52;;;14.40;99.90;;;;;;5000337;28;20042;-75
2023/10/23 08:31:11;;;;;;;33.55;30.75;;;14.60;99.90;;;;;;4997111;28;20108;-75
2023/10/23 08:33:56;;;;;;;33.03;30.52;;;14.20;99.90;;;;;;4989359;28;20057;-74
2023/10/23 08:36:23;;;;;;;33.47;30.88;;;13.90;99.90;;;;;;5006319;28;20049;-75
2023/10/23 08:38:51;;;;;;;33.17;30.55;;;13.90;99.90;;;;;;5001916;28;20058;-74
2023/10/23 08:41:17;;;;;;;32.25;29.70;;;13.90;99.90;;;;;;4997576;28;20110;-75
2023/10/23 08:43:44;;;;;;;33.25;30.38;;;14.00;99.90;;;;;;4995472;28;20572;-73
2023/10/23 08:46:11;;;;;;;31.50;29.20;;;14.20;99.90;;;;;;4997328;28;20049;-74
2023/10/23 08:48:38;;;;;;;31.90;29.40;;;14.40;99.90;;;;;;4994719;28;20111;-74
2023/10/23 08:51:07;;;;;;;31.77;29.50;;;14.40;99.90;;;;;;4999555;28;20053;-75
2023/10/23 08:53:42;;;;;;;30.98;28.65;;;14.50;99.90;;;;;;5000681;28;20697;-74
2023/10/23 08:56:12;;;;;;;30.45;28.15;;;14.70;99.90;;;;;;4990215;28;20042;-73
2023/10/23 08:58:44;;;;;;;30.50;28.33;;;14.90;99.90;;;;;;4997098;28;20550;-74
2023/10/23 09:01:11;;;;;;;31.65;29.33;;;14.80;99.90;;;;;;4994566;28;20039;-75
2023/10/23 09:03:38;;;;;;;31.33;29.13;;;14.70;99.90;;;;;;4972319;28;20751;-74
2023/10/23 09:06:25;;;;;;;30.75;28.55;;;14.60;99.90;;;;;;4998682;28;20056;-74
2023/10/23 09:08:52;;;;;;;30.75;28.70;;;14.60;99.90;;;;;;5002219;28;20069;-74
2023/10/23 09:11:20;;;;;;;31.88;29.77;;;14.60;99.90;;;;;;4994653;28;20046;-74
2023/10/23 09:13:47;;;;;;;30.55;28.48;;;14.70;99.90;;;;;;5000709;28;20119;-74
2023/10/23 09:16:14;;;;;;;30.67;28.25;;;14.80;99.90;;;;;;4995571;28;20042;-73
2023/10/23 09:18:46;;;;;;;32.15;29.25;;;14.60;99.90;;;;;;4984164;28;20092;-74
2023/10/23 09:21:15;;;;;;;30.80;28.65;;;14.70;99.90;;;;;;5001771;28;20041;-72
2023/10/23 09:23:53;;;;;;;31.50;29.30;;;14.70;99.90;;;;;;4997824;28;20053;-73
2023/10/23 09:26:22;;;;;;;28.55;26.50;;;14.20;99.90;;;;;;4996424;28;20258;-74
2023/10/23 09:28:50;;;;;;;27.67;25.85;;;14.10;99.90;;;;;;4997974;28;20649;-74
2023/10/23 09:31:17;;;;;;;29.08;27.17;;;13.80;99.90;;;;;;4998979;28;20741;-74
2023/10/23 09:33:45;;;;;;;29.50;27.30;;;13.90;99.90;;;;;;5003916;28;20081;-73
2023/10/23 09:36:13;;;;;;;28.92;26.70;;;13.90;99.90;;;;;;5006059;28;20053;-73
2023/10/23 09:38:42;;;;;;;29.38;27.42;;;13.70;99.90;;;;;;5000432;28;20049;-75
2023/10/23 09:41:10;;;;;;;30.40;28.27;;;13.60;99.90;;;;;;4998457;28;20174;-73
2023/10/23 09:43:45;;;;;;;30.17;27.83;;;13.60;99.90;;;;;;4999752;28;20419;-74
2023/10/23 09:46:12;;;;;;;;;;;13.80;99.90;;;;;;5001481;28;20054;-73
2023/10/23 09:48:44;;;;;;;30.95;28.60;;;13.90;99.90;;;;;;5003909;28;20034;-73
2023/10/23 09:51:15;;;;;;;30.08;27.98;;;13.80;99.90;;;;;;4994868;28;20056;-74
2023/10/23 09:53:47;;;;;;;28.75;26.63;;;13.70;99.90;;;;;;5013941;28;20059;-74
2023/10/23 09:56:21;;;;;;;28.05;25.85;;;13.50;99.90;;;;;;5006054;28;20038;-74
2023/10/23 09:58:57;;;;;;;27.05;25.17;;;13.40;99.90;;;;;;5005539;28;20084;-73
2023/10/23 10:01:33;;;;;;;27.23;25.13;;;13.50;99.90;;;;;;5004769;28;20064;-72
2023/10/23 10:04:22;;;;;;;29.25;27.27;;;13.60;99.90;;;;;;4996754;28;20485;-73
2023/10/23 10:06:55;;;;;;;27.58;25.67;;;14.00;99.90;;;;;;5033358;28;20756;-74
2023/10/23 10:09:25;;;;;;;27.20;25.40;;;13.90;99.90;;;;;;5020810;28;20053;-73
2023/10/23 10:11:54;;;;;;;26.65;24.73;;;13.90;99.90;;;;;;5016263;28;20539;-72
2023/10/23 10:14:23;;;;;;;25.63;23.90;;;13.70;99.90;;;;;;5013679;28;20054;-73
2023/10/23 10:16:52;;;;;;;27.13;25.13;;;13.60;99.90;;;;;;5017308;28;20038;-72
2023/10/23 10:19:20;;;;;;;26.33;24.40;;;13.50;99.90;;;;;;5013174;28;20936;-73
2023/10/23 10:22:03;;;;;;;27.75;25.58;;;13.30;99.90;;;;;;5023632;28;20053;-73
2023/10/23 10:24:33;;;;;;;26.65;24.48;;;13.10;99.90;;;;;;5011000;28;20045;-72
2023/10/23 10:27:03;;;;;;;27.35;25.15;;;13.20;99.90;;;;;;5017149;28;20045;-73
2023/10/23 10:29:30;;;;;;;25.38;23.58;;;13.50;99.90;;;;;;5018843;28;20279;-73
2023/10/23 10:32:11;;;;;;;26.33;24.63;;;13.80;99.90;;;;;;5015400;28;20268;-75
2023/10/23 10:34:46;;;;;;;25.77;24.00;;;14.30;99.90;;;;;;5016263;28;20167;-75
2023/10/23 10:37:23;;;;;;;25.13;23.52;;;14.00;99.90;;;;;;5019861;28;20057;-75
2023/10/23 10:40:01;;;;;;;26.27;24.58;;;14.40;99.90;;;;;;5020475;28;20056;-75
2023/10/23 10:42:29;;;;;;;27.90;25.95;;;14.60;99.90;;;;;;5012288;28;20127;-76
2023/10/23 10:44:58;;;;;;;27.98;26.25;;;14.40;99.90;;;;;;5022275;28;20042;-75
2023/10/23 10:47:43;;;;;;;27.65;25.67;;;14.50;99.90;;;;;;5023445;28;20109;-75
2023/10/23 10:50:11;;;;;;;28.15;26.13;;;14.50;99.90;;;;;;5006299;28;20084;-75
2023/10/23 10:52:39;;;;;;;28.52;26.65;;;14.70;99.90;;;;;;5013298;28;20052;-75
2023/10/23 10:55:11;;;;;;;28.40;26.40;;;14.70;99.90;;;;;;5024910;28;20046;-75
2023/10/23 10:57:43;;;;;;;28.42;26.52;;;14.70;99.90;;;;;;5030045;28;20042;-76
2023/10/23 11:00:11;;;;;;;28.55;26.45;;;14.60;99.90;;;;;;5028338;28;20041;-75
2023/10/23 11:02:39;;;;;;;29.52;27.38;;;14.60;99.90;;;;;;5010480;28;20034;-77
2023/10/23 11:05:10;;;;;;;27.75;25.75;;;14.50;99.90;;;;;;5003119;28;20062;-76
2023/10/23 11:07:37;;;;;;;30.20;27.77;;;14.30;99.90;;;;;;5012260;28;20073;-76
2023/10/23 11:10:05;;;;;;;29.33;27.15;;;14.00;99.90;;;;;;5008269;28;20038;-75
2023/10/23 11:12:32;;;;;;;28.60;26.33;;;13.90;99.90;;;;;;4999697;28;20045;-76
2023/10/23 11:14:59;;;;;;;28.85;26.52;;;13.90;99.90;;;;;;5011484;28;20052;-76
2023/10/23 11:17:26;;;;;;;28.15;26.05;;;14.10;99.90;;;;;;5004614;28;20572;-76
2023/10/23 11:19:53;;;;;;;28.38;26.20;;;14.40;99.90;;;;;;5003405;28;20273;-76
2023/10/23 11:22:23;;;;;;;28.08;26.02;;;14.20;99.90;;;;;;5001980;28;20073;-76
2023/10/23 11:24:51;;;;;;;29.63;27.42;;;14.10;99.90;;;;;;4996187;28;20053;-76
2023/10/23 11:27:17;;;;;;;28.98;26.98;;;14.10;99.90;;;;;;4997425;28;20042;-76
2023/10/23 11:29:47;;;;;;;28.48;26.48;;;14.20;99.90;;;;;;5000677;28;20488;-76
2023/10/23 11:32:15;;;;;;;28.90;26.67;;;14.10;99.90;;;;;;5002493;28;20040;-76
2023/10/23 11:34:42;;;;;;;27.25;25.35;;;14.30;99.90;;;;;;5028312;28;20026;-76
2023/10/23 11:37:11;;;;;;;26.33;24.13;;;14.40;99.90;;;;;;4984335;28;20038;-75
2023/10/23 11:39:42;;;;;;;28.10;25.60;;;14.40;99.90;;;;;;4997262;28;20464;-76
2023/10/23 11:42:10;;;;;;;26.50;24.48;;;14.40;99.90;;;;;;4990618;28;20053;-76
2023/10/23 11:44:37;;;;;;;27.80;25.60;;;14.20;99.90;;;;;;4995366;28;20060;-76
2023/10/23 11:47:07;;;;;;;26.77;24.73;;;14.00;99.90;;;;;;5002236;28;20045;-76
2023/10/23 11:49:35;;;;;;;35.33;24.65;;;13.90;99.90;;;;;;4984129;28;20108;-76
2023/10/23 11:52:05;;;;;;;26.05;24.15;;;14.00;99.90;;;;;;5001704;28;20091;-76
2023/10/23 11:54:32;;;;;;;25.88;23.98;;;14.00;99.90;;;;;;4998982;28;20042;-76
2023/10/23 11:56:59;;;;;;;24.90;23.00;;;14.00;99.90;;;;;;4994284;28;20053;-75
2023/10/23 11:59:26;;;;;;;25.38;23.67;;;13.90;99.90;;;;;;5005243;28;20695;-75
2023/10/23 12:01:58;;;;;;;25.42;23.73;;;13.90;99.90;;;;;;4986672;28;20563;-76
2023/10/23 12:04:25;;;;;;;24.08;22.58;;;13.90;99.90;;;;;;4997656;28;20139;-73
2023/10/23 12:06:52;;;;;;;25.90;23.90;;;14.00;99.90;;;;;;5002241;28;20089;-73
2023/10/23 12:09:19;;;;;;;24.60;22.90;;;14.20;99.90;;;;;;4999333;28;20112;-73
2023/10/23 12:11:46;;;;;;;24.63;22.88;;;14.30;99.90;;;;;;4996584;28;20100;-74
2023/10/23 12:14:13;;;;;;;24.73;22.88;;;14.40;99.90;;;;;;5001607;28;20466;-73
2023/10/23 12:16:39;;;;;;;25.33;23.73;;;14.20;99.90;;;;;;5017121;28;21223;-73
2023/10/23 12:19:09;;;;;;;23.75;22.15;;;14.10;99.90;;;;;;4998903;28;20412;-74
2023/10/23 12:21:37;;;;;;;24.42;22.73;;;14.20;99.90;;;;;;4997610;28;20049;-74
2023/10/23 12:24:06;;;;;;;24.92;23.13;;;14.30;99.90;;;;;;4996435;28;20589;-73
2023/10/23 12:26:34;;;;;;;24.77;23.17;;;14.40;99.90;;;;;;4985798;28;21051;-73
2023/10/23 12:29:07;;;;;;;24.13;22.52;;;14.30;99.90;;;;;;5002202;28;20132;-74
2023/10/23 12:31:33;;;;;;;23.67;22.27;;;14.30;99.90;;;;;;4998668;28;20807;-71
2023/10/23 12:34:20;;;;;;;23.90;22.30;;;14.30;99.90;;;;;;4987650;28;20056;-71
2023/10/23 12:36:47;;;;;;;24.20;22.60;;;14.20;99.90;;;;;;4995682;28;20048;-72